Gillette, WY

3:26 PM MDT on September 30, 2014 (GMT -0600)
Gillette-Campbell County | Change Station
CLOSE
Current Station
Airport
Location: Gillette,
Elevation: 4364 ft
Nearby Weather Stations

Elev 4364 ft 44.34 °N, 105.54 °W | Updated 33 minutes ago

Overcast
Overcast
59 °F
Feels Like 59 °F
N
13
Wind Variable Wind from NW
Gusts 24 mph

Today
High -- | Low -- °F
--% Chance of Precip.
Yesterday
High -- | Low -- °F
Precip. -- in
6:59 AM 6:45 PM
Waxing Crescent, 40% visible
Pressure 29.58 in
Visibility 10.0 miles
Clouds Few 3800 ft
Scattered Clouds 7500 ft
Overcast 9000 ft
Dew Point 43 °F
Humidity 55%
Rainfall 0.49 in
Snow Depth 0 in , 0 in , 1 in
UV 1 out of 12
Pollen 2.70 out of 12
Air Quality Not available.
Flu Activity Not available.
METAR KGCC 302053Z AUTO 32011G21KT 10SM FEW038 SCT075 OVC090 15/06 A2965 RMK AO2 SLP016 T01500061 56003

More Conditions Fewer Conditions

Pressure 29.58 in
Visibility 10.0 miles
Clouds Few 3800 ft
Scattered Clouds 7500 ft
Overcast 9000 ft
Dew Point 43 °F
Humidity 55%
Rainfall 0.49 in
Snow Depth 0 in , 0 in , 1 in
UV 1 out of 12
Pollen 2.70 out of 12
Air Quality Not available.
Flu Activity Not available.
METAR KGCC 302053Z AUTO 32011G21KT 10SM FEW038 SCT075 OVC090 15/06 A2965 RMK AO2 SLP016 T01500061 56003

More Conditions Fewer Conditions

10-Day Weather Forecast

Almanac

Astronomy

Sep. 30, 2014 Rise Set
Actual Time 6:59 AM MDT 6:45 PM MDT
Civil Twilight 6:30 AM MDT 7:14 PM MDT
Nautical Twilight 5:56 AM MDT 7:47 PM MDT
Astronomical Twilight 5:22 AM MDT 8:22 PM MDT
Moon 1:20 PM MDT 11:07 PM MDT
Length of Visible Light 12h 43m
Length of Day
11h 45m
Tomorrow will be 3m 3s shorter.
Waxing Crescent, 40% of the Moon is Illuminated
Today
Waxing Crescent
Oct 1
First Quarter
Oct 8
Full
Oct 15
Last Quarter
Oct 23
New

Today's Extremes

State Highs State Lows

Community

WunderPhotos

Upload Photos

1,757,755 photos uploaded!

Nearby

Snow Depth

Station Depth Elevation
Bald Mountain 0 in 9380 ft
New Fork Lake 0 in 8340 ft
Cinnabar Park 1 in 9690 ft
Thumb Divide 0 in 7980 ft
Phillips Bench 0 in 8200 ft

Earthquake Activity

City Distance Mag. Time & Date
No recent earthquake activity has been reported nearby.
Minimum magnitude displayed is 2.5.

Coastal Water Temperatures

Place Temperature
No Stations Reporting

Nearby Weather Stations